createdAt,value
2017-11-19T00:00:55.096Z,14.87
2017-11-19T00:03:22.666Z,14.37
2017-11-19T00:05:50.207Z,14.23
2017-11-19T00:08:17.780Z,12.80
2017-11-19T00:10:45.332Z,13.20
2017-11-19T00:13:12.902Z,12.47
2017-11-19T00:15:40.475Z,12.20
2017-11-19T00:18:08.039Z,13.10
2017-11-19T00:20:35.576Z,11.73
2017-11-19T00:23:03.156Z,11.53
2017-11-19T00:25:30.699Z,11.90
2017-11-19T00:27:59.030Z,12.13
2017-11-19T00:30:27.344Z,12.80
2017-11-19T00:32:54.935Z,12.53
2017-11-19T00:35:22.496Z,11.60
2017-11-19T00:37:50.040Z,13.30
2017-11-19T00:40:17.611Z,13.23
2017-11-19T00:42:45.158Z,11.37
2017-11-19T00:45:12.716Z,11.60
2017-11-19T00:47:40.254Z,12.60
2017-11-19T00:50:07.820Z,12.20
2017-11-19T00:52:35.380Z,10.80
2017-11-19T00:55:02.965Z,12.27
2017-11-19T00:57:30.529Z,11.50
2017-11-19T00:59:58.093Z,10.80
2017-11-19T01:02:25.636Z,10.57
2017-11-19T01:04:53.220Z,10.90
2017-11-19T01:07:20.761Z,11.47
2017-11-19T01:09:48.333Z,10.73
2017-11-19T01:12:15.880Z,10.13
2017-11-19T01:14:43.450Z,10.07
2017-11-19T01:17:10.992Z,10.13
2017-11-19T01:19:38.559Z,9.30
2017-11-19T01:22:06.856Z,8.73
2017-11-19T01:24:34.415Z,9.30
2017-11-19T01:27:01.948Z,7.90
2017-11-19T01:29:29.523Z,7.33
2017-11-19T01:31:57.044Z,8.00
2017-11-19T01:34:24.580Z,7.90
2017-11-19T01:36:52.904Z,7.43
2017-11-19T01:39:20.443Z,8.30
2017-11-19T01:41:48.008Z,7.90
2017-11-19T01:44:15.544Z,7.40
2017-11-19T01:46:43.880Z,7.90
2017-11-19T01:49:11.419Z,8.00
2017-11-19T01:51:38.977Z,6.87
2017-11-19T01:54:06.509Z,7.43
2017-11-19T01:56:34.832Z,7.13
2017-11-19T01:59:02.370Z,7.33
2017-11-19T02:01:29.926Z,6.37
2017-11-19T02:03:57.457Z,5.80
2017-11-19T02:06:25.797Z,7.77
2017-11-19T02:08:53.333Z,6.30
2017-11-19T02:11:20.888Z,6.27
2017-11-19T02:13:48.419Z,6.60
2017-11-19T02:16:16.748Z,6.93
2017-11-19T02:18:44.278Z,6.37
2017-11-19T02:21:11.840Z,6.20
2017-11-19T02:23:39.387Z,5.47
2017-11-19T02:26:06.941Z,7.43
2017-11-19T02:28:35.224Z,6.57
2017-11-19T02:31:02.798Z,6.80
2017-11-19T02:33:30.352Z,6.03
2017-11-19T02:35:57.888Z,6.97
2017-11-19T02:38:26.215Z,5.97
2017-11-19T02:40:53.748Z,6.10
2017-11-19T02:43:21.300Z,6.60
2017-11-19T02:45:48.836Z,6.33
2017-11-19T02:48:17.164Z,7.13
2017-11-19T02:50:45.457Z,7.07
2017-11-19T02:53:13.029Z,7.53
2017-11-19T02:55:40.570Z,7.80
2017-11-19T02:58:08.132Z,8.40
2017-11-19T03:00:35.673Z,8.17
2017-11-19T03:03:03.237Z,7.73
2017-11-19T03:05:31.544Z,7.90
2017-11-19T03:07:59.092Z,8.40
2017-11-19T03:10:26.624Z,9.33
2017-11-19T03:12:54.183Z,9.20
2017-11-19T03:15:21.714Z,8.90
2017-11-19T03:17:50.055Z,8.50
2017-11-19T03:20:17.590Z,8.93
2017-11-19T03:22:47.085Z,9.20
2017-11-19T03:25:14.616Z,9.83
2017-11-19T03:27:42.949Z,9.80
2017-11-19T03:30:10.493Z,10.00
2017-11-19T03:32:38.053Z,9.63
2017-11-19T03:35:05.594Z,9.47
2017-11-19T03:37:33.166Z,9.43
2017-11-19T03:40:00.702Z,9.63
2017-11-19T03:42:28.997Z,9.47
2017-11-19T03:44:56.558Z,9.20
2017-11-19T03:47:24.091Z,8.87
2017-11-19T03:49:52.415Z,10.40
2017-11-19T03:52:19.948Z,10.47
2017-11-19T03:54:47.511Z,8.90
2017-11-19T04:00:30.180Z,10.27
2017-11-19T04:02:57.720Z,9.10
2017-11-19T04:05:25.278Z,10.60
2017-11-19T04:07:52.820Z,9.87
2017-11-19T04:10:20.375Z,9.83
2017-11-19T04:12:47.916Z,9.30
2017-11-19T04:15:16.247Z,10.17
2017-11-19T04:17:43.776Z,10.80
2017-11-19T04:20:11.335Z,10.73
2017-11-19T04:22:38.868Z,9.70
2017-11-19T04:25:06.433Z,11.20
2017-11-19T04:27:34.735Z,11.20
2017-11-19T04:30:02.292Z,8.90
2017-11-19T04:32:29.831Z,10.20
2017-11-19T04:34:58.160Z,9.73
2017-11-19T04:37:25.696Z,11.00
2017-11-19T04:39:53.249Z,11.03
2017-11-19T04:42:20.791Z,10.83
2017-11-19T04:44:49.129Z,12.30
2017-11-19T04:47:16.665Z,11.17
2017-11-19T04:49:44.238Z,11.30
2017-11-19T04:52:11.776Z,12.57
2017-11-19T04:54:39.337Z,12.23
2017-11-19T04:57:06.868Z,11.90
2017-11-19T04:59:35.205Z,11.73
2017-11-19T05:02:02.736Z,11.03
2017-11-19T05:04:30.277Z,11.93
2017-11-19T05:06:57.840Z,11.63
2017-11-19T05:09:25.384Z,9.67
2017-11-19T05:11:53.720Z,9.40
2017-11-19T05:14:21.255Z,9.80
2017-11-19T05:16:48.826Z,9.50
2017-11-19T05:19:16.368Z,8.90
2017-11-19T05:21:44.705Z,8.57
2017-11-19T05:24:12.241Z,8.70
2017-11-19T05:26:39.813Z,9.00
2017-11-19T05:29:07.357Z,9.20
2017-11-19T05:31:34.918Z,9.13
2017-11-19T05:34:02.462Z,7.80
2017-11-19T05:36:30.014Z,6.87
2017-11-19T05:38:57.551Z,6.80
2017-11-19T05:41:25.118Z,6.20
2017-11-19T05:43:52.647Z,6.07
2017-11-19T05:46:20.208Z,6.63
2017-11-19T05:48:48.531Z,6.90
2017-11-19T05:51:16.092Z,6.33
2017-11-19T05:53:43.636Z,7.07
2017-11-19T05:56:11.188Z,7.90
2017-11-19T05:58:38.730Z,7.00
2017-11-19T06:01:07.069Z,6.67
2017-11-19T06:03:34.605Z,6.90
2017-11-19T06:06:02.136Z,6.97
2017-11-19T06:08:30.463Z,6.50
2017-11-19T06:10:57.995Z,6.73
2017-11-19T06:13:25.544Z,6.57
2017-11-19T06:15:53.077Z,7.50
2017-11-19T06:18:20.640Z,7.13
2017-11-19T06:20:48.945Z,5.93
2017-11-19T06:23:16.506Z,6.00
2017-11-19T06:25:44.048Z,5.87
2017-11-19T06:28:12.372Z,5.67
2017-11-19T06:30:39.896Z,5.77
2017-11-19T06:33:07.453Z,4.93
2017-11-19T06:35:34.996Z,5.00
2017-11-19T06:38:03.318Z,5.47
2017-11-19T06:40:30.852Z,4.90
2017-11-19T06:42:58.416Z,4.90
2017-11-19T06:45:25.945Z,5.03
2017-11-19T06:47:53.500Z,5.00
2017-11-19T06:50:21.041Z,5.23
2017-11-19T06:52:48.592Z,5.50
2017-11-19T06:55:16.128Z,5.77
2017-11-19T06:57:43.697Z,4.73
2017-11-19T07:00:11.230Z,6.70
2017-11-19T07:02:38.781Z,5.53
2017-11-19T07:05:06.316Z,6.47
2017-11-19T07:07:33.888Z,5.90
2017-11-19T07:10:02.191Z,5.30
2017-11-19T07:12:29.726Z,6.77
2017-11-19T07:14:57.306Z,5.80
2017-11-19T07:17:24.841Z,6.20
2017-11-19T07:19:52.423Z,6.70
2017-11-19T07:22:19.963Z,5.67
2017-11-19T07:24:48.300Z,6.70
2017-11-19T07:27:15.831Z,6.20
2017-11-19T07:29:43.419Z,7.30
2017-11-19T07:32:10.965Z,9.87
2017-11-19T07:34:38.559Z,7.10
2017-11-19T07:37:06.112Z,5.57
2017-11-19T07:39:33.678Z,5.90
2017-11-19T07:42:01.222Z,5.33
2017-11-19T07:44:28.795Z,5.63
2017-11-19T07:46:56.351Z,5.67
2017-11-19T07:49:23.911Z,5.27
2017-11-19T07:51:51.468Z,5.53
2017-11-19T07:54:19.024Z,5.30
2017-11-19T07:56:46.858Z,4.50
2017-11-19T07:59:14.457Z,6.27
2017-11-19T08:01:42.203Z,5.57
2017-11-19T08:04:10.552Z,5.47
2017-11-19T08:06:38.260Z,6.10
2017-11-19T08:09:07.586Z,5.73
2017-11-19T08:11:35.655Z,5.10
2017-11-19T08:14:03.252Z,5.97
2017-11-19T08:16:30.828Z,5.50
2017-11-19T08:18:58.371Z,4.90
2017-11-19T08:21:26.062Z,5.40
2017-11-19T08:23:53.620Z,5.33
2017-11-19T08:26:21.179Z,5.60
2017-11-19T08:28:48.904Z,5.60
2017-11-19T08:31:16.504Z,5.33
2017-11-19T08:33:44.218Z,5.30
2017-11-19T08:36:11.804Z,5.30
2017-11-19T08:38:39.336Z,6.43
2017-11-19T08:41:08.227Z,5.17
2017-11-19T08:43:35.840Z,6.10
2017-11-19T08:46:03.395Z,4.87
2017-11-19T08:48:30.940Z,5.83
2017-11-19T08:50:58.508Z,5.27
2017-11-19T08:53:26.043Z,5.10
2017-11-19T08:55:54.379Z,5.10
2017-11-19T08:58:21.917Z,4.43
2017-11-19T09:00:49.659Z,4.80
2017-11-19T09:03:17.186Z,4.90
2017-11-19T09:05:44.740Z,4.20
2017-11-19T09:08:12.272Z,4.20
2017-11-19T09:10:39.844Z,5.17
2017-11-19T09:13:07.377Z,4.40
2017-11-19T09:15:34.915Z,4.53
2017-11-19T09:18:02.479Z,5.13
2017-11-19T09:20:30.031Z,4.57
2017-11-19T09:22:57.845Z,5.40
2017-11-19T09:25:26.214Z,4.80
2017-11-19T09:27:53.776Z,4.13
2017-11-19T09:30:29.628Z,5.13
2017-11-19T09:33:05.209Z,4.87
2017-11-19T09:35:40.026Z,4.77
2017-11-19T09:38:13.834Z,3.87
2017-11-19T09:40:47.515Z,4.13
2017-11-19T09:43:21.495Z,4.40
2017-11-19T09:45:52.733Z,4.67
2017-11-19T09:48:26.540Z,3.97
2017-11-19T09:50:54.547Z,4.13
2017-11-19T09:53:22.999Z,4.80
2017-11-19T09:55:50.541Z,4.37
2017-11-19T09:58:18.860Z,3.90
2017-11-19T10:00:46.407Z,4.33
2017-11-19T10:03:20.040Z,5.13
2017-11-19T10:05:47.578Z,4.77
2017-11-19T10:08:15.144Z,3.53
2017-11-19T10:10:42.666Z,4.10
2017-11-19T10:13:10.224Z,4.30
2017-11-19T10:15:38.515Z,4.27
2017-11-19T10:18:06.071Z,4.30
2017-11-19T10:20:33.600Z,4.50
2017-11-19T10:23:01.160Z,3.50
2017-11-19T10:25:28.694Z,3.47
2017-11-19T10:27:56.249Z,4.33
2017-11-19T10:30:23.787Z,3.80
2017-11-19T10:32:51.351Z,3.83
2017-11-19T10:35:18.885Z,3.77
2017-11-19T10:37:46.444Z,3.50
2017-11-19T10:40:13.971Z,3.53
2017-11-19T10:42:41.509Z,3.70
2017-11-19T10:45:09.064Z,3.33
2017-11-19T10:47:36.584Z,3.30
2017-11-19T10:50:04.178Z,4.23
2017-11-19T10:52:31.711Z,3.50
2017-11-19T10:54:59.263Z,3.13
2017-11-19T10:57:26.797Z,3.70
2017-11-19T10:59:54.353Z,3.70
2017-11-19T11:02:28.087Z,3.43
2017-11-19T11:05:02.695Z,3.30
2017-11-19T11:07:40.775Z,3.20
2017-11-19T11:10:12.841Z,2.70
2017-11-19T11:12:47.617Z,2.80
2017-11-19T11:15:21.756Z,2.97
2017-11-19T11:17:57.385Z,3.70
2017-11-19T11:20:34.569Z,2.93
2017-11-19T11:23:08.813Z,3.30
2017-11-19T11:25:43.585Z,2.67
2017-11-19T11:28:19.298Z,2.93
2017-11-19T11:30:56.551Z,3.40
2017-11-19T11:33:30.461Z,3.50
2017-11-19T11:36:05.701Z,21.00
2017-11-19T11:38:40.519Z,4.33
2017-11-19T11:41:12.290Z,2.93
2017-11-19T11:43:47.456Z,3.10
2017-11-19T11:46:19.036Z,2.50
2017-11-19T11:48:53.420Z,2.90
2017-11-19T11:51:27.345Z,3.10
2017-11-19T11:53:58.367Z,3.30
2017-11-19T11:56:28.756Z,4.67
2017-11-19T11:59:00.227Z,2.97
2017-11-19T12:01:34.580Z,2.50
2017-11-19T12:04:12.253Z,3.50
2017-11-19T12:06:39.813Z,4.20
2017-11-19T12:09:07.347Z,2.63
2017-11-19T12:11:38.854Z,3.63
2017-11-19T12:14:06.396Z,3.63
2017-11-19T12:16:34.816Z,3.63
2017-11-19T12:19:07.139Z,4.93
2017-11-19T12:21:42.376Z,3.07
2017-11-19T12:24:12.616Z,3.50
2017-11-19T12:26:42.354Z,2.77
2017-11-19T12:29:13.141Z,3.80
2017-11-19T12:31:42.180Z,3.07
2017-11-19T12:34:12.026Z,2.57
2017-11-19T12:36:41.522Z,2.93
2017-11-19T12:39:11.699Z,2.53
2017-11-19T12:41:41.374Z,2.50
2017-11-19T12:44:10.443Z,4.00
2017-11-19T12:46:46.308Z,4.20
2017-11-19T12:49:21.756Z,4.13
2017-11-19T12:51:57.746Z,2.60
2017-11-19T12:54:33.703Z,3.50
2017-11-19T12:57:08.467Z,4.47
2017-11-19T12:59:41.357Z,4.50
2017-11-19T13:02:16.694Z,2.77
2017-11-19T13:04:46.651Z,2.60
2017-11-19T13:07:23.225Z,3.50
2017-11-19T13:09:57.133Z,3.63
2017-11-19T13:12:33.041Z,3.13
2017-11-19T13:15:07.978Z,4.60
2017-11-19T13:17:43.002Z,2.77
2017-11-19T13:20:13.230Z,3.17
2017-11-19T13:22:47.033Z,3.00
2017-11-19T13:25:21.309Z,3.17
2017-11-19T13:27:55.790Z,3.50
2017-11-19T13:30:23.373Z,3.40
2017-11-19T13:32:59.274Z,3.33
2017-11-19T13:35:34.120Z,3.60
2017-11-19T13:38:09.789Z,3.20
2017-11-19T13:40:44.789Z,2.80
2017-11-19T13:43:17.547Z,3.07
2017-11-19T13:45:47.533Z,2.63
2017-11-19T13:48:19.330Z,2.97
2017-11-19T13:50:54.063Z,2.90
2017-11-19T13:53:26.315Z,3.00
2017-11-19T13:55:59.608Z,2.80
2017-11-19T13:58:34.942Z,2.40
2017-11-19T14:01:06.993Z,2.80
2017-11-19T14:03:40.914Z,5.90
2017-11-19T14:06:14.665Z,2.63
2017-11-19T14:08:49.937Z,2.97
2017-11-19T14:11:21.677Z,2.40
2017-11-19T14:13:56.826Z,2.40
2017-11-19T14:19:15.466Z,2.80
2017-11-19T14:21:47.436Z,2.60
2017-11-19T14:24:18.556Z,3.37
2017-11-19T14:26:54.018Z,3.00
2017-11-19T14:29:28.558Z,2.67
2017-11-19T14:32:06.258Z,3.20
2017-11-19T14:34:40.143Z,3.30
2017-11-19T14:37:14.153Z,2.70
2017-11-19T14:39:49.243Z,2.83
2017-11-19T14:42:24.726Z,2.93
2017-11-19T14:44:58.938Z,3.47
2017-11-19T14:47:33.875Z,3.30
2017-11-19T14:50:08.931Z,9.73
2017-11-19T14:52:43.858Z,17.60
2017-11-19T14:55:18.121Z,9.60
2017-11-19T14:57:54.420Z,3.80
2017-11-19T15:00:30.159Z,3.50
2017-11-19T15:03:03.895Z,3.00
2017-11-19T15:05:40.056Z,3.50
2017-11-19T15:10:57.915Z,4.17
2017-11-19T15:13:28.968Z,3.87
2017-11-19T15:16:04.376Z,5.20
2017-11-19T15:18:39.754Z,5.23
2017-11-19T15:21:14.486Z,6.97
2017-11-19T15:23:50.193Z,6.07
2017-11-19T15:26:25.653Z,4.80
2017-11-19T15:29:01.130Z,4.40
2017-11-19T15:31:36.400Z,4.37
2017-11-19T15:34:09.371Z,4.10
2017-11-19T15:36:44.538Z,4.20
2017-11-19T15:39:15.750Z,5.83
2017-11-19T15:41:47.254Z,8.07
2017-11-19T15:44:15.664Z,9.60
2017-11-19T15:46:46.866Z,9.80
2017-11-19T15:49:19.042Z,12.37
2017-11-19T15:51:51.965Z,8.97
2017-11-19T15:54:24.084Z,4.87
2017-11-19T15:57:00.379Z,3.83
2017-11-19T15:59:37.904Z,4.57
2017-11-19T16:02:13.762Z,6.37
2017-11-19T16:04:47.237Z,5.40
2017-11-19T16:07:20.131Z,4.93
2017-11-19T16:09:56.352Z,4.07
2017-11-19T16:12:31.257Z,4.10
2017-11-19T16:15:01.755Z,4.50
2017-11-19T16:17:30.174Z,8.60
2017-11-19T16:19:57.716Z,4.70
2017-11-19T16:22:28.595Z,4.40
2017-11-19T16:24:59.556Z,4.50
2017-11-19T16:27:33.352Z,6.50
2017-11-19T16:32:06.187Z,7.57
2017-11-19T16:34:40.904Z,5.77
2017-11-19T16:37:09.594Z,8.20
2017-11-19T16:39:45.386Z,5.70
2017-11-19T16:42:21.820Z,7.93
2017-11-19T16:44:57.137Z,6.97
2017-11-19T16:47:36.562Z,6.07
2017-11-19T16:50:11.411Z,8.43
2017-11-19T16:52:44.417Z,5.97
2017-11-19T16:55:14.779Z,7.57
2017-11-19T16:57:43.107Z,5.07
2017-11-19T17:00:13.491Z,5.20
2017-11-19T17:02:43.093Z,5.60
2017-11-19T17:05:11.396Z,5.20
2017-11-19T17:07:39.795Z,5.40
2017-11-19T17:10:12.443Z,4.60
2017-11-19T17:12:40.013Z,3.87
2017-11-19T17:15:07.539Z,4.10
2017-11-19T17:17:35.940Z,3.80
2017-11-19T17:20:04.240Z,5.73
2017-11-19T17:22:31.800Z,3.73
2017-11-19T17:24:59.325Z,3.90
2017-11-19T17:27:27.620Z,4.83
2017-11-19T17:29:55.172Z,4.13
2017-11-19T17:32:22.706Z,4.60
2017-11-19T17:34:51.039Z,4.17
2017-11-19T17:37:18.577Z,6.20
2017-11-19T17:39:46.138Z,4.80
2017-11-19T17:42:13.673Z,4.33
2017-11-19T17:44:41.992Z,4.50
2017-11-19T17:47:10.291Z,4.43
2017-11-19T17:49:37.850Z,4.43
2017-11-19T17:52:05.387Z,4.80
2017-11-19T17:54:32.945Z,5.20
2017-11-19T17:57:00.489Z,5.00
2017-11-19T17:59:28.053Z,4.77
2017-11-19T18:01:55.580Z,4.30
2017-11-19T18:04:23.892Z,3.50
2017-11-19T18:06:51.425Z,4.03
2017-11-19T18:09:19.744Z,4.63
2017-11-19T18:11:47.279Z,4.07
2017-11-19T18:14:14.828Z,4.27
2017-11-19T18:16:42.360Z,4.63
2017-11-19T18:19:09.908Z,4.17
2017-11-19T18:21:37.440Z,4.60
2017-11-19T18:24:05.012Z,4.50
2017-11-19T18:26:32.545Z,4.97
2017-11-19T18:29:00.087Z,4.70
2017-11-19T18:31:28.401Z,4.40
2017-11-19T18:33:55.932Z,4.30
2017-11-19T18:36:23.499Z,4.63
2017-11-19T18:38:51.036Z,4.10
2017-11-19T18:41:19.357Z,4.47
2017-11-19T18:43:46.883Z,4.10
2017-11-19T18:46:14.447Z,3.93
2017-11-19T18:48:41.979Z,4.60
2017-11-19T18:51:10.306Z,4.53
2017-11-19T18:53:37.832Z,4.20
2017-11-19T18:56:06.148Z,4.30
2017-11-19T18:58:33.736Z,4.27
2017-11-19T19:01:01.327Z,5.10
2017-11-19T19:03:28.866Z,5.90
2017-11-19T19:05:56.444Z,5.00
2017-11-19T19:08:24.764Z,5.97
2017-11-19T19:10:52.339Z,6.10
2017-11-19T19:13:19.884Z,6.27
2017-11-19T19:15:47.505Z,5.87
2017-11-19T19:18:15.798Z,6.80
2017-11-19T19:20:43.358Z,6.10
2017-11-19T19:23:10.883Z,6.10
2017-11-19T19:25:39.228Z,7.07
2017-11-19T19:28:06.763Z,5.07
2017-11-19T19:30:34.316Z,5.77
2017-11-19T19:33:01.852Z,6.07
2017-11-19T19:35:30.151Z,5.43
2017-11-19T19:37:57.713Z,6.80
2017-11-19T19:40:25.266Z,6.83
2017-11-19T19:42:52.838Z,6.40
2017-11-19T19:45:20.380Z,7.07
2017-11-19T19:47:47.932Z,5.67
2017-11-19T19:50:16.246Z,4.90
2017-11-19T19:52:43.809Z,6.33
2017-11-19T19:55:11.340Z,6.60
2017-11-19T19:57:38.900Z,5.30
2017-11-19T20:00:06.444Z,5.20
2017-11-19T20:02:34.767Z,5.17
2017-11-19T20:05:03.068Z,5.40
2017-11-19T20:07:30.627Z,5.47
2017-11-19T20:09:58.163Z,5.00
2017-11-19T20:12:25.719Z,7.53
2017-11-19T20:14:53.262Z,5.60
2017-11-19T20:17:20.831Z,8.70
2017-11-19T20:19:48.355Z,6.60
2017-11-19T20:22:16.689Z,5.25
2017-11-19T20:24:44.227Z,5.20
2017-11-19T20:27:11.801Z,6.97
2017-11-19T20:29:39.324Z,5.47
2017-11-19T20:32:06.913Z,4.87
2017-11-19T20:34:34.460Z,6.27
2017-11-19T20:37:02.003Z,7.83
2017-11-19T20:39:30.335Z,6.37
2017-11-19T20:41:57.878Z,8.53
2017-11-19T20:44:25.443Z,6.50
2017-11-19T20:46:52.978Z,7.80
2017-11-19T20:49:20.547Z,7.27
2017-11-19T20:51:48.088Z,6.90
2017-11-19T20:54:15.647Z,7.23
2017-11-19T20:56:43.189Z,8.30
2017-11-19T20:59:11.512Z,6.47
2017-11-19T21:01:39.050Z,6.50
2017-11-19T21:04:06.616Z,6.90
2017-11-19T21:06:34.175Z,7.83
2017-11-19T21:09:01.734Z,5.53
2017-11-19T21:11:29.268Z,5.33
2017-11-19T21:13:57.597Z,6.13
2017-11-19T21:16:25.124Z,5.97
2017-11-19T21:18:52.789Z,5.00
2017-11-19T21:21:20.345Z,5.70
2017-11-19T21:23:47.910Z,5.40
2017-11-19T21:26:15.436Z,4.90
2017-11-19T21:28:43.780Z,5.17
2017-11-19T21:31:11.327Z,6.60
2017-11-19T21:33:38.888Z,5.60
2017-11-19T21:36:06.428Z,6.40
2017-11-19T21:38:34.025Z,5.10
2017-11-19T21:41:01.586Z,5.10
2017-11-19T21:43:29.164Z,5.80
2017-11-19T21:45:56.721Z,5.50
2017-11-19T21:48:24.264Z,6.20
2017-11-19T21:50:51.968Z,5.47
2017-11-19T21:53:20.284Z,4.77
2017-11-19T21:55:47.845Z,5.57
2017-11-19T21:58:15.406Z,6.13
2017-11-19T22:00:42.966Z,5.27
2017-11-19T22:03:10.501Z,5.87
2017-11-19T22:05:38.132Z,5.40
2017-11-19T22:08:05.700Z,5.70
2017-11-19T22:10:33.308Z,6.10
2017-11-19T22:13:00.832Z,5.30
2017-11-19T22:15:28.705Z,5.53
2017-11-19T22:17:56.239Z,6.33
2017-11-19T22:20:23.799Z,5.43
2017-11-19T22:22:51.327Z,6.53
2017-11-19T22:25:18.885Z,4.93
2017-11-19T22:27:46.414Z,6.90
2017-11-19T22:30:13.968Z,6.50
2017-11-19T22:32:41.499Z,6.20
2017-11-19T22:35:09.831Z,5.73
2017-11-19T22:37:37.370Z,6.60
2017-11-19T22:40:04.921Z,6.90
2017-11-19T22:42:32.463Z,6.10
2017-11-19T22:45:00.788Z,6.70
2017-11-19T22:47:28.311Z,6.43
2017-11-19T22:49:56.624Z,6.60
2017-11-19T22:52:24.164Z,6.53
2017-11-19T22:54:51.713Z,6.60
2017-11-19T22:57:19.260Z,7.40
2017-11-19T22:59:47.580Z,6.80
2017-11-19T23:02:15.884Z,6.57
2017-11-19T23:04:43.450Z,6.30
2017-11-19T23:07:11.012Z,6.50
2017-11-19T23:09:38.587Z,7.23
2017-11-19T23:12:06.907Z,7.80
2017-11-19T23:14:34.490Z,6.62
2017-11-19T23:17:02.036Z,7.50
2017-11-19T23:19:29.619Z,7.93
2017-11-19T23:21:57.172Z,7.70
2017-11-19T23:24:24.724Z,8.87
2017-11-19T23:26:52.255Z,7.73
2017-11-19T23:29:19.827Z,8.17
2017-11-19T23:31:47.372Z,7.50
2017-11-19T23:34:14.936Z,7.03
2017-11-19T23:36:42.469Z,7.30
2017-11-19T23:39:10.803Z,7.43
2017-11-19T23:41:38.368Z,8.37
2017-11-19T23:44:05.896Z,8.73
2017-11-19T23:46:33.458Z,8.90
2017-11-19T23:49:00.983Z,8.60
2017-11-19T23:51:29.315Z,8.17
2017-11-19T23:53:56.852Z,8.27
2017-11-19T23:56:30.228Z,10.13
2017-11-19T23:58:58.527Z,8.37
